sensor_id;sensor_type;location;lat;lon;timestamp;P1;durP1;ratioP1;P2;durP2;ratioP2
55330;SDS011;58851;42.984;20.336;2024-01-11T00:01:09;124.93;;;76.00;;
55330;SDS011;58851;42.984;20.336;2024-01-11T00:03:38;118.30;;;73.40;;
55330;SDS011;58851;42.984;20.336;2024-01-11T00:06:04;122.05;;;78.20;;
55330;SDS011;58851;42.984;20.336;2024-01-11T00:08:30;118.95;;;67.65;;
55330;SDS011;58851;42.984;20.336;2024-01-11T00:10:56;111.97;;;65.20;;
55330;SDS011;58851;42.984;20.336;2024-01-11T00:13:22;109.40;;;63.83;;
55330;SDS011;58851;42.984;20.336;2024-01-11T00:15:48;131.70;;;76.13;;
55330;SDS011;58851;42.984;20.336;2024-01-11T00:18:14;128.68;;;79.07;;
55330;SDS011;58851;42.984;20.336;2024-01-11T00:20:39;130.55;;;80.32;;
55330;SDS011;58851;42.984;20.336;2024-01-11T00:23:05;139.60;;;82.25;;
55330;SDS011;58851;42.984;20.336;2024-01-11T00:25:31;136.93;;;80.22;;
55330;SDS011;58851;42.984;20.336;2024-01-11T00:27:57;144.35;;;82.03;;
55330;SDS011;58851;42.984;20.336;2024-01-11T00:30:22;127.75;;;77.60;;
55330;SDS011;58851;42.984;20.336;2024-01-11T00:32:48;123.32;;;71.03;;
55330;SDS011;58851;42.984;20.336;2024-01-11T00:35:14;117.63;;;69.35;;
55330;SDS011;58851;42.984;20.336;2024-01-11T00:37:40;118.07;;;75.28;;
55330;SDS011;58851;42.984;20.336;2024-01-11T00:40:06;122.95;;;72.65;;
55330;SDS011;58851;42.984;20.336;2024-01-11T00:42:32;117.70;;;68.63;;
55330;SDS011;58851;42.984;20.336;2024-01-11T00:44:59;107.53;;;68.80;;
55330;SDS011;58851;42.984;20.336;2024-01-11T00:47:25;112.47;;;67.22;;
55330;SDS011;58851;42.984;20.336;2024-01-11T00:49:52;114.35;;;68.88;;
55330;SDS011;58851;42.984;20.336;2024-01-11T00:52:18;89.90;;;49.20;;
55330;SDS011;58851;42.984;20.336;2024-01-11T00:54:43;75.57;;;43.83;;
55330;SDS011;58851;42.984;20.336;2024-01-11T00:57:09;68.90;;;38.30;;
55330;SDS011;58851;42.984;20.336;2024-01-11T00:59:35;36.17;;;24.67;;
55330;SDS011;58851;42.984;20.336;2024-01-11T01:02:01;41.47;;;26.30;;
55330;SDS011;58851;42.984;20.336;2024-01-11T01:04:27;47.05;;;27.35;;
55330;SDS011;58851;42.984;20.336;2024-01-11T01:06:52;44.90;;;28.52;;
55330;SDS011;58851;42.984;20.336;2024-01-11T01:09:18;43.78;;;29.35;;
55330;SDS011;58851;42.984;20.336;2024-01-11T01:11:44;44.08;;;26.40;;
55330;SDS011;58851;42.984;20.336;2024-01-11T01:14:10;47.90;;;29.25;;
55330;SDS011;58851;42.984;20.336;2024-01-11T01:16:35;45.10;;;28.55;;
55330;SDS011;58851;42.984;20.336;2024-01-11T01:19:01;43.17;;;27.33;;
55330;SDS011;58851;42.984;20.336;2024-01-11T01:21:27;44.92;;;30.42;;
55330;SDS011;58851;42.984;20.336;2024-01-11T01:23:53;50.30;;;31.25;;
55330;SDS011;58851;42.984;20.336;2024-01-11T01:26:19;49.03;;;31.60;;
55330;SDS011;58851;42.984;20.336;2024-01-11T01:28:45;60.55;;;35.40;;
55330;SDS011;58851;42.984;20.336;2024-01-11T01:31:11;54.92;;;34.55;;
55330;SDS011;58851;42.984;20.336;2024-01-11T01:33:37;66.53;;;38.10;;
55330;SDS011;58851;42.984;20.336;2024-01-11T01:36:07;61.15;;;37.75;;
55330;SDS011;58851;42.984;20.336;2024-01-11T01:38:35;69.20;;;40.85;;
55330;SDS011;58851;42.984;20.336;2024-01-11T01:41:00;57.35;;;35.53;;
55330;SDS011;58851;42.984;20.336;2024-01-11T01:43:26;84.00;;;48.95;;
55330;SDS011;58851;42.984;20.336;2024-01-11T01:45:52;101.80;;;65.57;;
55330;SDS011;58851;42.984;20.336;2024-01-11T01:48:19;126.43;;;71.82;;
55330;SDS011;58851;42.984;20.336;2024-01-11T01:50:46;100.88;;;63.42;;
55330;SDS011;58851;42.984;20.336;2024-01-11T01:53:19;91.95;;;52.40;;
55330;SDS011;58851;42.984;20.336;2024-01-11T01:55:47;99.40;;;57.38;;
55330;SDS011;58851;42.984;20.336;2024-01-11T01:58:13;107.78;;;62.35;;
55330;SDS011;58851;42.984;20.336;2024-01-11T02:00:40;91.60;;;55.38;;
55330;SDS011;58851;42.984;20.336;2024-01-11T02:03:07;79.18;;;48.42;;
55330;SDS011;58851;42.984;20.336;2024-01-11T02:05:34;79.22;;;45.28;;
55330;SDS011;58851;42.984;20.336;2024-01-11T02:08:01;74.78;;;45.47;;
55330;SDS011;58851;42.984;20.336;2024-01-11T02:10:33;83.70;;;48.05;;
55330;SDS011;58851;42.984;20.336;2024-01-11T02:13:00;80.93;;;45.75;;
55330;SDS011;58851;42.984;20.336;2024-01-11T02:15:26;81.72;;;49.55;;
55330;SDS011;58851;42.984;20.336;2024-01-11T02:17:52;82.28;;;47.25;;
55330;SDS011;58851;42.984;20.336;2024-01-11T02:20:18;93.20;;;52.80;;
55330;SDS011;58851;42.984;20.336;2024-01-11T02:22:46;83.82;;;51.17;;
55330;SDS011;58851;42.984;20.336;2024-01-11T02:25:15;81.85;;;48.83;;
55330;SDS011;58851;42.984;20.336;2024-01-11T02:27:48;84.15;;;51.55;;
55330;SDS011;58851;42.984;20.336;2024-01-11T02:30:15;87.55;;;54.25;;
55330;SDS011;58851;42.984;20.336;2024-01-11T02:32:45;91.63;;;56.70;;
55330;SDS011;58851;42.984;20.336;2024-01-11T02:35:13;86.75;;;50.38;;
55330;SDS011;58851;42.984;20.336;2024-01-11T02:37:41;90.35;;;53.33;;
55330;SDS011;58851;42.984;20.336;2024-01-11T02:40:08;87.65;;;54.22;;
55330;SDS011;58851;42.984;20.336;2024-01-11T02:42:35;92.57;;;54.03;;
55330;SDS011;58851;42.984;20.336;2024-01-11T02:45:04;90.93;;;54.75;;
55330;SDS011;58851;42.984;20.336;2024-01-11T02:47:30;90.85;;;51.10;;
55330;SDS011;58851;42.984;20.336;2024-01-11T02:49:56;108.40;;;64.97;;
55330;SDS011;58851;42.984;20.336;2024-01-11T02:52:22;111.30;;;66.75;;
55330;SDS011;58851;42.984;20.336;2024-01-11T02:54:48;143.85;;;86.47;;
55330;SDS011;58851;42.984;20.336;2024-01-11T02:57:14;148.63;;;88.60;;
55330;SDS011;58851;42.984;20.336;2024-01-11T02:59:40;138.98;;;84.75;;
55330;SDS011;58851;42.984;20.336;2024-01-11T03:02:07;126.07;;;78.18;;
55330;SDS011;58851;42.984;20.336;2024-01-11T03:04:33;125.72;;;79.72;;
55330;SDS011;58851;42.984;20.336;2024-01-11T03:06:58;114.35;;;69.03;;
55330;SDS011;58851;42.984;20.336;2024-01-11T03:09:24;99.45;;;61.45;;
55330;SDS011;58851;42.984;20.336;2024-01-11T03:11:50;107.40;;;61.35;;
55330;SDS011;58851;42.984;20.336;2024-01-11T03:14:16;105.85;;;62.00;;
55330;SDS011;58851;42.984;20.336;2024-01-11T03:16:42;101.82;;;60.88;;
55330;SDS011;58851;42.984;20.336;2024-01-11T03:19:08;86.40;;;52.70;;
55330;SDS011;58851;42.984;20.336;2024-01-11T03:21:34;79.22;;;52.10;;
55330;SDS011;58851;42.984;20.336;2024-01-11T03:23:59;96.07;;;59.60;;
55330;SDS011;58851;42.984;20.336;2024-01-11T03:26:25;98.53;;;56.30;;
55330;SDS011;58851;42.984;20.336;2024-01-11T03:28:51;91.88;;;60.10;;
55330;SDS011;58851;42.984;20.336;2024-01-11T03:31:17;99.28;;;64.28;;
55330;SDS011;58851;42.984;20.336;2024-01-11T03:33:42;101.28;;;67.00;;
55330;SDS011;58851;42.984;20.336;2024-01-11T03:36:11;112.93;;;70.25;;
55330;SDS011;58851;42.984;20.336;2024-01-11T03:38:37;116.22;;;74.13;;
55330;SDS011;58851;42.984;20.336;2024-01-11T03:41:09;136.57;;;81.20;;
55330;SDS011;58851;42.984;20.336;2024-01-11T03:43:36;121.25;;;72.97;;
55330;SDS011;58851;42.984;20.336;2024-01-11T03:46:02;104.57;;;62.65;;
55330;SDS011;58851;42.984;20.336;2024-01-11T03:48:29;90.30;;;59.92;;
55330;SDS011;58851;42.984;20.336;2024-01-11T03:50:55;101.78;;;62.97;;
55330;SDS011;58851;42.984;20.336;2024-01-11T03:53:21;106.30;;;61.38;;
55330;SDS011;58851;42.984;20.336;2024-01-11T03:55:47;105.22;;;64.30;;
55330;SDS011;58851;42.984;20.336;2024-01-11T03:58:13;96.47;;;59.25;;
55330;SDS011;58851;42.984;20.336;2024-01-11T04:00:39;103.95;;;60.53;;
55330;SDS011;58851;42.984;20.336;2024-01-11T04:03:06;101.43;;;60.13;;
55330;SDS011;58851;42.984;20.336;2024-01-11T04:05:32;104.68;;;62.15;;
55330;SDS011;58851;42.984;20.336;2024-01-11T04:07:58;105.15;;;62.00;;
55330;SDS011;58851;42.984;20.336;2024-01-11T04:10:23;107.38;;;65.13;;
55330;SDS011;58851;42.984;20.336;2024-01-11T04:12:49;105.80;;;64.63;;
55330;SDS011;58851;42.984;20.336;2024-01-11T04:15:15;96.15;;;60.33;;
55330;SDS011;58851;42.984;20.336;2024-01-11T04:17:41;91.68;;;55.17;;
55330;SDS011;58851;42.984;20.336;2024-01-11T04:20:07;97.70;;;56.15;;
55330;SDS011;58851;42.984;20.336;2024-01-11T04:22:36;98.93;;;58.95;;
55330;SDS011;58851;42.984;20.336;2024-01-11T04:25:02;103.10;;;61.75;;
55330;SDS011;58851;42.984;20.336;2024-01-11T04:27:27;133.07;;;76.63;;
55330;SDS011;58851;42.984;20.336;2024-01-11T04:29:53;156.63;;;89.05;;
55330;SDS011;58851;42.984;20.336;2024-01-11T04:32:19;172.25;;;97.85;;
55330;SDS011;58851;42.984;20.336;2024-01-11T04:34:45;161.90;;;90.85;;
55330;SDS011;58851;42.984;20.336;2024-01-11T04:37:11;149.02;;;92.00;;
55330;SDS011;58851;42.984;20.336;2024-01-11T04:39:36;174.73;;;100.65;;
55330;SDS011;58851;42.984;20.336;2024-01-11T04:42:03;165.80;;;97.32;;
55330;SDS011;58851;42.984;20.336;2024-01-11T04:44:29;159.15;;;90.97;;
55330;SDS011;58851;42.984;20.336;2024-01-11T04:46:54;142.77;;;81.20;;
55330;SDS011;58851;42.984;20.336;2024-01-11T04:49:20;121.32;;;72.35;;
55330;SDS011;58851;42.984;20.336;2024-01-11T04:51:46;113.82;;;72.70;;
55330;SDS011;58851;42.984;20.336;2024-01-11T04:54:12;109.22;;;66.47;;
55330;SDS011;58851;42.984;20.336;2024-01-11T04:56:37;98.35;;;59.72;;
55330;SDS011;58851;42.984;20.336;2024-01-11T04:59:03;97.50;;;59.38;;
55330;SDS011;58851;42.984;20.336;2024-01-11T05:01:29;108.78;;;65.88;;
55330;SDS011;58851;42.984;20.336;2024-01-11T05:03:55;131.40;;;71.88;;
55330;SDS011;58851;42.984;20.336;2024-01-11T05:06:21;108.30;;;67.28;;
55330;SDS011;58851;42.984;20.336;2024-01-11T05:08:48;110.82;;;70.35;;
55330;SDS011;58851;42.984;20.336;2024-01-11T05:11:18;103.57;;;65.43;;
55330;SDS011;58851;42.984;20.336;2024-01-11T05:13:44;104.38;;;61.42;;
55330;SDS011;58851;42.984;20.336;2024-01-11T05:16:26;94.63;;;58.65;;
55330;SDS011;58851;42.984;20.336;2024-01-11T05:18:53;106.38;;;62.40;;
55330;SDS011;58851;42.984;20.336;2024-01-11T05:21:20;90.22;;;61.22;;
55330;SDS011;58851;42.984;20.336;2024-01-11T05:23:46;95.15;;;60.05;;
55330;SDS011;58851;42.984;20.336;2024-01-11T05:26:13;126.65;;;70.60;;
55330;SDS011;58851;42.984;20.336;2024-01-11T05:28:40;112.90;;;69.03;;
55330;SDS011;58851;42.984;20.336;2024-01-11T05:31:10;113.00;;;64.72;;
55330;SDS011;58851;42.984;20.336;2024-01-11T05:33:37;120.38;;;72.97;;
55330;SDS011;58851;42.984;20.336;2024-01-11T05:36:04;144.07;;;83.15;;
55330;SDS011;58851;42.984;20.336;2024-01-11T05:38:31;194.10;;;106.25;;
55330;SDS011;58851;42.984;20.336;2024-01-11T05:40:56;146.93;;;83.60;;
55330;SDS011;58851;42.984;20.336;2024-01-11T05:43:22;147.35;;;84.93;;
55330;SDS011;58851;42.984;20.336;2024-01-11T05:45:49;120.05;;;73.13;;
55330;SDS011;58851;42.984;20.336;2024-01-11T05:48:15;132.52;;;75.70;;
55330;SDS011;58851;42.984;20.336;2024-01-11T05:50:41;297.30;;;153.55;;
55330;SDS011;58851;42.984;20.336;2024-01-11T05:53:07;296.15;;;157.48;;
55330;SDS011;58851;42.984;20.336;2024-01-11T05:55:33;278.10;;;148.45;;
55330;SDS011;58851;42.984;20.336;2024-01-11T05:57:59;298.02;;;162.75;;
55330;SDS011;58851;42.984;20.336;2024-01-11T06:00:25;252.40;;;140.23;;
55330;SDS011;58851;42.984;20.336;2024-01-11T06:02:51;162.98;;;95.10;;
55330;SDS011;58851;42.984;20.336;2024-01-11T06:05:17;171.60;;;102.55;;
55330;SDS011;58851;42.984;20.336;2024-01-11T06:07:43;140.07;;;89.63;;
55330;SDS011;58851;42.984;20.336;2024-01-11T06:10:09;97.22;;;67.18;;
55330;SDS011;58851;42.984;20.336;2024-01-11T06:12:35;102.22;;;66.40;;
55330;SDS011;58851;42.984;20.336;2024-01-11T06:15:01;162.70;;;92.40;;
55330;SDS011;58851;42.984;20.336;2024-01-11T06:17:27;288.80;;;137.90;;
55330;SDS011;58851;42.984;20.336;2024-01-11T06:19:53;342.52;;;161.65;;
55330;SDS011;58851;42.984;20.336;2024-01-11T06:22:20;394.92;;;186.02;;
55330;SDS011;58851;42.984;20.336;2024-01-11T06:24:45;170.95;;;91.88;;
55330;SDS011;58851;42.984;20.336;2024-01-11T06:27:11;139.85;;;78.55;;
55330;SDS011;58851;42.984;20.336;2024-01-11T06:29:37;88.65;;;52.28;;
55330;SDS011;58851;42.984;20.336;2024-01-11T06:32:04;58.03;;;36.03;;
55330;SDS011;58851;42.984;20.336;2024-01-11T06:34:30;59.25;;;36.60;;
55330;SDS011;58851;42.984;20.336;2024-01-11T06:36:56;68.32;;;44.05;;
55330;SDS011;58851;42.984;20.336;2024-01-11T06:39:21;78.57;;;47.85;;
55330;SDS011;58851;42.984;20.336;2024-01-11T06:41:47;72.40;;;50.30;;
55330;SDS011;58851;42.984;20.336;2024-01-11T06:44:13;67.95;;;45.78;;
55330;SDS011;58851;42.984;20.336;2024-01-11T06:46:39;53.13;;;34.90;;
55330;SDS011;58851;42.984;20.336;2024-01-11T06:49:07;58.75;;;37.40;;
55330;SDS011;58851;42.984;20.336;2024-01-11T06:51:33;50.83;;;32.72;;
55330;SDS011;58851;42.984;20.336;2024-01-11T06:53:59;70.97;;;43.60;;
55330;SDS011;58851;42.984;20.336;2024-01-11T06:56:26;60.35;;;37.92;;
55330;SDS011;58851;42.984;20.336;2024-01-11T06:58:52;45.85;;;31.33;;
55330;SDS011;58851;42.984;20.336;2024-01-11T07:01:19;51.38;;;31.95;;
55330;SDS011;58851;42.984;20.336;2024-01-11T07:03:45;47.10;;;30.63;;
55330;SDS011;58851;42.984;20.336;2024-01-11T07:06:11;40.58;;;28.85;;
55330;SDS011;58851;42.984;20.336;2024-01-11T07:08:38;47.92;;;29.90;;
55330;SDS011;58851;42.984;20.336;2024-01-11T07:11:04;45.25;;;30.60;;
55330;SDS011;58851;42.984;20.336;2024-01-11T07:13:30;44.83;;;33.33;;
55330;SDS011;58851;42.984;20.336;2024-01-11T07:15:57;42.55;;;29.85;;
55330;SDS011;58851;42.984;20.336;2024-01-11T07:18:23;62.97;;;39.75;;
55330;SDS011;58851;42.984;20.336;2024-01-11T07:20:50;78.30;;;49.35;;
55330;SDS011;58851;42.984;20.336;2024-01-11T07:23:16;67.50;;;40.95;;
55330;SDS011;58851;42.984;20.336;2024-01-11T07:25:42;66.40;;;40.90;;
55330;SDS011;58851;42.984;20.336;2024-01-11T07:28:08;72.65;;;46.90;;
55330;SDS011;58851;42.984;20.336;2024-01-11T07:30:34;122.18;;;68.30;;
55330;SDS011;58851;42.984;20.336;2024-01-11T07:33:00;89.45;;;54.30;;
55330;SDS011;58851;42.984;20.336;2024-01-11T07:35:26;61.00;;;36.47;;
55330;SDS011;58851;42.984;20.336;2024-01-11T07:37:52;76.22;;;43.55;;
55330;SDS011;58851;42.984;20.336;2024-01-11T07:40:19;74.75;;;46.63;;
55330;SDS011;58851;42.984;20.336;2024-01-11T07:42:45;73.85;;;47.80;;
55330;SDS011;58851;42.984;20.336;2024-01-11T07:45:14;72.45;;;48.20;;
55330;SDS011;58851;42.984;20.336;2024-01-11T07:47:40;39.53;;;25.00;;
55330;SDS011;58851;42.984;20.336;2024-01-11T07:50:07;24.05;;;16.17;;
55330;SDS011;58851;42.984;20.336;2024-01-11T07:52:35;21.23;;;13.68;;
55330;SDS011;58851;42.984;20.336;2024-01-11T07:55:02;21.40;;;14.60;;
55330;SDS011;58851;42.984;20.336;2024-01-11T07:57:35;25.10;;;17.52;;
55330;SDS011;58851;42.984;20.336;2024-01-11T08:00:01;16.25;;;11.73;;
55330;SDS011;58851;42.984;20.336;2024-01-11T08:02:29;20.25;;;17.17;;
55330;SDS011;58851;42.984;20.336;2024-01-11T08:04:54;16.13;;;10.85;;
55330;SDS011;58851;42.984;20.336;2024-01-11T08:07:20;16.02;;;11.48;;
55330;SDS011;58851;42.984;20.336;2024-01-11T08:09:47;17.05;;;11.75;;
55330;SDS011;58851;42.984;20.336;2024-01-11T08:12:13;28.38;;;18.30;;
55330;SDS011;58851;42.984;20.336;2024-01-11T08:14:39;19.38;;;14.05;;
55330;SDS011;58851;42.984;20.336;2024-01-11T08:17:07;11.23;;;8.52;;
55330;SDS011;58851;42.984;20.336;2024-01-11T08:19:33;56.25;;;27.17;;
55330;SDS011;58851;42.984;20.336;2024-01-11T08:22:00;127.35;;;58.63;;
55330;SDS011;58851;42.984;20.336;2024-01-11T08:24:25;15.45;;;9.80;;
55330;SDS011;58851;42.984;20.336;2024-01-11T08:26:52;13.57;;;9.05;;
55330;SDS011;58851;42.984;20.336;2024-01-11T08:29:17;11.82;;;8.75;;
55330;SDS011;58851;42.984;20.336;2024-01-11T08:31:47;31.17;;;18.73;;
55330;SDS011;58851;42.984;20.336;2024-01-11T08:34:13;35.03;;;23.65;;
55330;SDS011;58851;42.984;20.336;2024-01-11T08:36:39;24.08;;;17.65;;
55330;SDS011;58851;42.984;20.336;2024-01-11T08:39:05;16.08;;;10.43;;
55330;SDS011;58851;42.984;20.336;2024-01-11T08:41:32;14.60;;;10.77;;
55330;SDS011;58851;42.984;20.336;2024-01-11T08:43:58;12.15;;;8.25;;
55330;SDS011;58851;42.984;20.336;2024-01-11T08:46:27;12.38;;;7.93;;
55330;SDS011;58851;42.984;20.336;2024-01-11T08:48:55;14.75;;;10.32;;
55330;SDS011;58851;42.984;20.336;2024-01-11T08:51:22;18.70;;;12.30;;
55330;SDS011;58851;42.984;20.336;2024-01-11T08:53:48;11.15;;;7.60;;
55330;SDS011;58851;42.984;20.336;2024-01-11T08:56:14;10.35;;;7.07;;
55330;SDS011;58851;42.984;20.336;2024-01-11T08:58:41;15.63;;;10.73;;
55330;SDS011;58851;42.984;20.336;2024-01-11T09:01:08;17.52;;;10.13;;
55330;SDS011;58851;42.984;20.336;2024-01-11T09:03:34;11.70;;;7.82;;
55330;SDS011;58851;42.984;20.336;2024-01-11T09:06:00;37.42;;;33.75;;
55330;SDS011;58851;42.984;20.336;2024-01-11T09:08:27;15.82;;;14.10;;
55330;SDS011;58851;42.984;20.336;2024-01-11T09:10:54;24.33;;;17.35;;
55330;SDS011;58851;42.984;20.336;2024-01-11T09:13:21;40.88;;;37.15;;
55330;SDS011;58851;42.984;20.336;2024-01-11T09:15:47;24.20;;;21.83;;
55330;SDS011;58851;42.984;20.336;2024-01-11T09:18:12;18.50;;;13.93;;
55330;SDS011;58851;42.984;20.336;2024-01-11T09:20:38;19.67;;;13.80;;
55330;SDS011;58851;42.984;20.336;2024-01-11T09:23:04;21.88;;;14.90;;
55330;SDS011;58851;42.984;20.336;2024-01-11T09:25:30;30.42;;;19.35;;
55330;SDS011;58851;42.984;20.336;2024-01-11T09:27:56;50.78;;;28.52;;
55330;SDS011;58851;42.984;20.336;2024-01-11T09:30:22;17.13;;;11.02;;
55330;SDS011;58851;42.984;20.336;2024-01-11T09:32:48;10.18;;;7.97;;
55330;SDS011;58851;42.984;20.336;2024-01-11T09:35:13;22.38;;;12.23;;
55330;SDS011;58851;42.984;20.336;2024-01-11T09:37:39;26.83;;;15.40;;
55330;SDS011;58851;42.984;20.336;2024-01-11T09:40:06;41.60;;;24.23;;
55330;SDS011;58851;42.984;20.336;2024-01-11T09:42:36;52.22;;;26.55;;
55330;SDS011;58851;42.984;20.336;2024-01-11T09:45:04;37.13;;;20.75;;
55330;SDS011;58851;42.984;20.336;2024-01-11T09:47:34;49.67;;;26.77;;
55330;SDS011;58851;42.984;20.336;2024-01-11T09:50:04;43.20;;;23.00;;
55330;SDS011;58851;42.984;20.336;2024-01-11T09:52:31;23.95;;;11.85;;
55330;SDS011;58851;42.984;20.336;2024-01-11T09:54:57;21.65;;;12.85;;
55330;SDS011;58851;42.984;20.336;2024-01-11T09:57:24;80.15;;;41.95;;
55330;SDS011;58851;42.984;20.336;2024-01-11T09:59:58;70.53;;;34.00;;
55330;SDS011;58851;42.984;20.336;2024-01-11T10:02:24;80.03;;;41.50;;
55330;SDS011;58851;42.984;20.336;2024-01-11T10:04:54;65.15;;;30.20;;
55330;SDS011;58851;42.984;20.336;2024-01-11T10:07:23;39.67;;;21.67;;
55330;SDS011;58851;42.984;20.336;2024-01-11T10:09:52;39.67;;;18.67;;
55330;SDS011;58851;42.984;20.336;2024-01-11T10:12:18;42.00;;;20.33;;
55330;SDS011;58851;42.984;20.336;2024-01-11T10:14:48;22.35;;;12.38;;
55330;SDS011;58851;42.984;20.336;2024-01-11T10:17:14;44.33;;;23.20;;
55330;SDS011;58851;42.984;20.336;2024-01-11T10:19:40;64.75;;;34.63;;
55330;SDS011;58851;42.984;20.336;2024-01-11T10:22:05;75.93;;;40.25;;
55330;SDS011;58851;42.984;20.336;2024-01-11T10:24:32;45.45;;;28.25;;
55330;SDS011;58851;42.984;20.336;2024-01-11T10:26:59;50.40;;;24.13;;
55330;SDS011;58851;42.984;20.336;2024-01-11T10:29:32;41.70;;;23.45;;
55330;SDS011;58851;42.984;20.336;2024-01-11T10:31:58;19.70;;;12.70;;
55330;SDS011;58851;42.984;20.336;2024-01-11T10:34:24;14.75;;;11.07;;
55330;SDS011;58851;42.984;20.336;2024-01-11T10:36:50;18.95;;;14.18;;
55330;SDS011;58851;42.984;20.336;2024-01-11T10:39:17;11.32;;;7.70;;
55330;SDS011;58851;42.984;20.336;2024-01-11T10:41:50;33.03;;;16.67;;
55330;SDS011;58851;42.984;20.336;2024-01-11T10:44:18;18.42;;;10.70;;
55330;SDS011;58851;42.984;20.336;2024-01-11T10:46:49;21.88;;;12.52;;
55330;SDS011;58851;42.984;20.336;2024-01-11T10:49:16;21.65;;;12.65;;
55330;SDS011;58851;42.984;20.336;2024-01-11T10:51:53;28.67;;;16.33;;
55330;SDS011;58851;42.984;20.336;2024-01-11T10:54:23;15.23;;;11.18;;
55330;SDS011;58851;42.984;20.336;2024-01-11T10:56:49;11.32;;;8.77;;
55330;SDS011;58851;42.984;20.336;2024-01-11T10:59:16;9.60;;;6.95;;
55330;SDS011;58851;42.984;20.336;2024-01-11T11:01:46;9.30;;;7.18;;
55330;SDS011;58851;42.984;20.336;2024-01-11T11:04:12;15.70;;;12.13;;
55330;SDS011;58851;42.984;20.336;2024-01-11T11:06:40;19.00;;;13.02;;
55330;SDS011;58851;42.984;20.336;2024-01-11T11:09:08;17.38;;;14.00;;
55330;SDS011;58851;42.984;20.336;2024-01-11T11:11:35;12.02;;;8.15;;
55330;SDS011;58851;42.984;20.336;2024-01-11T11:14:03;13.57;;;8.57;;
55330;SDS011;58851;42.984;20.336;2024-01-11T11:16:30;13.35;;;8.15;;
55330;SDS011;58851;42.984;20.336;2024-01-11T11:18:55;12.95;;;8.50;;
55330;SDS011;58851;42.984;20.336;2024-01-11T11:21:22;14.60;;;8.82;;
55330;SDS011;58851;42.984;20.336;2024-01-11T11:23:50;10.32;;;6.97;;
55330;SDS011;58851;42.984;20.336;2024-01-11T11:26:16;10.30;;;6.97;;
55330;SDS011;58851;42.984;20.336;2024-01-11T11:28:43;11.65;;;7.45;;
55330;SDS011;58851;42.984;20.336;2024-01-11T11:31:12;10.27;;;8.10;;
55330;SDS011;58851;42.984;20.336;2024-01-11T11:33:40;9.95;;;7.70;;
55330;SDS011;58851;42.984;20.336;2024-01-11T11:36:06;11.88;;;8.85;;
55330;SDS011;58851;42.984;20.336;2024-01-11T11:38:39;12.15;;;7.50;;
55330;SDS011;58851;42.984;20.336;2024-01-11T11:41:05;10.00;;;7.43;;
55330;SDS011;58851;42.984;20.336;2024-01-11T11:43:32;12.15;;;7.82;;
55330;SDS011;58851;42.984;20.336;2024-01-11T11:45:58;13.60;;;10.60;;
55330;SDS011;58851;42.984;20.336;2024-01-11T11:51:09;16.33;;;10.52;;
55330;SDS011;58851;42.984;20.336;2024-01-11T11:53:37;14.80;;;8.30;;
55330;SDS011;58851;42.984;20.336;2024-01-11T11:56:04;16.88;;;11.48;;
55330;SDS011;58851;42.984;20.336;2024-01-11T11:58:32;18.13;;;12.13;;
55330;SDS011;58851;42.984;20.336;2024-01-11T12:00:59;13.50;;;9.90;;
55330;SDS011;58851;42.984;20.336;2024-01-11T12:06:05;19.27;;;10.77;;
55330;SDS011;58851;42.984;20.336;2024-01-11T12:08:33;15.50;;;9.55;;
55330;SDS011;58851;42.984;20.336;2024-01-11T12:10:59;17.10;;;14.15;;
55330;SDS011;58851;42.984;20.336;2024-01-11T12:13:26;18.08;;;15.50;;
55330;SDS011;58851;42.984;20.336;2024-01-11T12:15:53;15.77;;;9.27;;
55330;SDS011;58851;42.984;20.336;2024-01-11T12:18:20;11.60;;;9.00;;
55330;SDS011;58851;42.984;20.336;2024-01-11T12:20:46;12.48;;;9.60;;
55330;SDS011;58851;42.984;20.336;2024-01-11T12:23:12;11.52;;;8.95;;
55330;SDS011;58851;42.984;20.336;2024-01-11T12:25:41;14.38;;;9.10;;
55330;SDS011;58851;42.984;20.336;2024-01-11T12:28:08;14.45;;;11.95;;
55330;SDS011;58851;42.984;20.336;2024-01-11T12:30:36;12.38;;;8.50;;
55330;SDS011;58851;42.984;20.336;2024-01-11T12:33:03;17.70;;;10.88;;
55330;SDS011;58851;42.984;20.336;2024-01-11T12:35:30;10.52;;;7.85;;
55330;SDS011;58851;42.984;20.336;2024-01-11T12:38:01;10.32;;;6.95;;
55330;SDS011;58851;42.984;20.336;2024-01-11T12:40:32;12.98;;;9.32;;
55330;SDS011;58851;42.984;20.336;2024-01-11T12:42:59;19.88;;;17.73;;
55330;SDS011;58851;42.984;20.336;2024-01-11T12:45:25;21.55;;;15.93;;
55330;SDS011;58851;42.984;20.336;2024-01-11T12:47:52;24.23;;;18.13;;
55330;SDS011;58851;42.984;20.336;2024-01-11T12:50:19;12.52;;;9.75;;
55330;SDS011;58851;42.984;20.336;2024-01-11T12:52:45;12.73;;;8.93;;
55330;SDS011;58851;42.984;20.336;2024-01-11T12:55:18;15.13;;;11.50;;
55330;SDS011;58851;42.984;20.336;2024-01-11T12:57:44;11.77;;;8.80;;
55330;SDS011;58851;42.984;20.336;2024-01-11T13:00:11;12.32;;;10.20;;
55330;SDS011;58851;42.984;20.336;2024-01-11T13:02:41;18.00;;;14.20;;
55330;SDS011;58851;42.984;20.336;2024-01-11T13:05:12;15.45;;;10.85;;
55330;SDS011;58851;42.984;20.336;2024-01-11T13:07:39;36.25;;;29.65;;
55330;SDS011;58851;42.984;20.336;2024-01-11T13:10:05;21.73;;;16.65;;
55330;SDS011;58851;42.984;20.336;2024-01-11T13:12:31;19.23;;;15.27;;
55330;SDS011;58851;42.984;20.336;2024-01-11T13:14:56;16.85;;;14.85;;
55330;SDS011;58851;42.984;20.336;2024-01-11T13:17:22;23.50;;;15.88;;
55330;SDS011;58851;42.984;20.336;2024-01-11T13:19:48;26.25;;;18.65;;
55330;SDS011;58851;42.984;20.336;2024-01-11T13:22:14;50.17;;;27.33;;
55330;SDS011;58851;42.984;20.336;2024-01-11T13:24:40;42.10;;;24.65;;
55330;SDS011;58851;42.984;20.336;2024-01-11T13:27:06;34.88;;;18.50;;
55330;SDS011;58851;42.984;20.336;2024-01-11T13:29:32;18.85;;;13.65;;
55330;SDS011;58851;42.984;20.336;2024-01-11T13:31:57;22.95;;;15.38;;
55330;SDS011;58851;42.984;20.336;2024-01-11T13:34:23;22.92;;;15.10;;
55330;SDS011;58851;42.984;20.336;2024-01-11T13:36:49;25.90;;;16.70;;
55330;SDS011;58851;42.984;20.336;2024-01-11T13:39:15;20.20;;;14.95;;
55330;SDS011;58851;42.984;20.336;2024-01-11T13:41:43;25.83;;;17.33;;
55330;SDS011;58851;42.984;20.336;2024-01-11T13:44:09;26.88;;;18.80;;
55330;SDS011;58851;42.984;20.336;2024-01-11T13:46:36;26.00;;;19.50;;
55330;SDS011;58851;42.984;20.336;2024-01-11T13:49:02;44.33;;;30.50;;
55330;SDS011;58851;42.984;20.336;2024-01-11T13:51:28;67.93;;;40.85;;
55330;SDS011;58851;42.984;20.336;2024-01-11T13:53:57;30.90;;;21.88;;
55330;SDS011;58851;42.984;20.336;2024-01-11T13:56:24;28.25;;;19.00;;
55330;SDS011;58851;42.984;20.336;2024-01-11T13:58:50;36.78;;;25.73;;
55330;SDS011;58851;42.984;20.336;2024-01-11T14:01:16;38.58;;;23.95;;
55330;SDS011;58851;42.984;20.336;2024-01-11T14:03:42;28.92;;;19.48;;
55330;SDS011;58851;42.984;20.336;2024-01-11T14:06:07;170.20;;;95.32;;
55330;SDS011;58851;42.984;20.336;2024-01-11T14:08:33;245.82;;;154.88;;